Aérodrome :
LOGIN :

S'inscrire | Disclaimer

   EN    FR    IT 

 










Légende :    VFR   VFR Marginal   IFR   IFR Intensif   IFR Très Intensif
Visi : 
Plafond : 
>= 8 km
>= 3000ft
5 à 8 km
1000 à 3000 ft
1500m à 5 km
500 à 1000 ft
800 à 1500m
200 à 500 ft
< 800m
< 200 ft
Symboles :   Orages  Brouillard  Fortes neiges  Fortes précipitations  Vent > 20 kt
SIGMETs :   Divers  Orages  Givrage  Turbulence  Onde Orograph.  Cendres Volcan.






- Altitude de l'aérodrome : 935 ft


EBFS - Florennes

DERNIER METAR :
  • 200355Z AUTO VRB01KT 2700 BR FEW210/// 04/03 Q1017 YLO

METARs EXPIRÉS :
  • 200347Z AUTO VRB01KT 1500 BR FEW200/// 04/03 Q1017 AMB
  • 200325Z AUTO VRB02KT 2200 BR BKN200/// 04/03 Q1017 YLO
  • 200255Z AUTO VRB01KT 3100 BR BKN210/// 06/04 Q1017 YLO
  • 200225Z AUTO VRB02KT 3400 BR BKN210/// 05/04 Q1017 YLO
  • 200155Z AUTO VRB02KT 3100 BR BKN210/// 05/04 Q1017 YLO
  • 200125Z AUTO VRB02KT 3300 BR BKN210/// 05/04 Q1017 YLO

TAF TAF EBFS
Valide du 19 à 19h jusqu'au 20 à 07h UTC


191556Z 1919/2007 03005KT 9999 SCT060
BECMG 1922/1924 5000 BR
BECMG 1924/2002 3000 BR
TEMPO 2002/2007 0500 FG



MET'MAP, la Météo Aéronautique d'un coup d'oeil ! - Copyright ORBIFLY Décembre 2007 - Disclaimer

ORBIFLY MET'MAP TEAM :

Programmation & Développement : Alexandra Zaïnal
Sur une idée originale de : Baudouin d'Aumeries
Assistance à la programmation : Marc-Olivier Méhu
Soutien technique & logistique : Manuel Goepfert

Contact : metmap@orbifly.com




SOURCES & CREDITS :

   NOAA